Time;durP1;ratioP1;P1;durP2;ratioP2;P2;SDS_P1;SDS_P2;PMS_P1;PMS_P2;Temp;Humidity;BMP_temperature;BMP_pressure;BME280_temperature;BME280_humidity;BME280_pressure;Samples;Min_cycle;Max_cycle;Signal;HPM_P1;HPM_P2
2023/08/05 00:00:09;;;;;;;6.75;4.20;;;20.40;99.90;;;;;;2585047;54;20951;31
2023/08/05 00:02:45;;;;;;;9.05;4.70;;;20.50;99.90;;;;;;2586135;54;20038;31
2023/08/05 00:05:19;;;;;;;8.40;4.70;;;20.40;99.90;;;;;;2586158;54;20851;31
2023/08/05 00:07:57;;;;;;;5.43;4.33;;;20.40;99.90;;;;;;2585541;54;20904;31
2023/08/05 00:10:33;;;;;;;8.17;4.80;;;20.30;99.90;;;;;;2583551;54;20238;31
2023/08/05 00:13:10;;;;;;;12.30;5.70;;;20.30;99.90;;;;;;2585268;54;20730;31
2023/08/05 00:15:45;;;;;;;8.23;5.10;;;20.30;99.90;;;;;;2585941;54;20097;31
2023/08/05 00:18:19;;;;;;;9.52;5.75;;;20.20;99.90;;;;;;2585176;54;20034;31
2023/08/05 00:20:52;;;;;;;11.63;7.07;;;20.10;99.90;;;;;;2586030;54;20055;31
2023/08/05 00:23:33;;;;;;;9.35;5.85;;;20.10;99.90;;;;;;2604393;46;20955;31
2023/08/05 00:26:13;;;;;;;8.40;6.00;;;20.00;99.90;;;;;;2585263;47;20944;31
2023/08/05 00:28:47;;;;;;;12.82;7.80;;;20.00;99.90;;;;;;2604138;46;20702;31
2023/08/05 00:31:21;;;;;;;13.55;8.15;;;20.00;99.90;;;;;;2585035;54;20859;31
2023/08/05 00:33:58;;;;;;;16.27;8.45;;;20.00;99.90;;;;;;2602359;46;20023;31
2023/08/05 00:36:36;;;;;;;12.80;7.28;;;19.90;99.90;;;;;;2603978;46;20030;31
2023/08/05 00:39:14;;;;;;;14.27;6.87;;;19.90;99.90;;;;;;2584321;54;20822;31
2023/08/05 00:41:56;;;;;;;15.25;8.35;;;19.80;99.90;;;;;;2585751;54;20153;31
2023/08/05 00:44:30;;;;;;;14.25;8.95;;;19.80;99.90;;;;;;2604221;47;20758;31
2023/08/05 00:47:15;;;;;;;15.65;8.30;;;19.70;99.90;;;;;;2585924;54;20105;31
2023/08/05 00:49:52;;;;;;;14.82;8.13;;;19.70;99.90;;;;;;2755383;31;20534;31
2023/08/05 00:52:26;;;;;;;13.85;8.00;;;19.70;99.90;;;;;;2586173;54;20053;31
2023/08/05 00:55:14;;;;;;;9.97;6.80;;;19.60;99.90;;;;;;2605046;46;20033;31
2023/08/05 00:57:53;;;;;;;10.88;6.75;;;19.60;99.90;;;;;;2586620;54;20239;31
2023/08/05 01:00:29;;;;;;;13.75;7.25;;;19.60;99.90;;;;;;2586363;54;20736;31
2023/08/05 01:03:04;;;;;;;8.70;6.30;;;19.50;99.90;;;;;;2755411;31;21561;31
2023/08/05 01:05:40;;;;;;;9.37;7.17;;;19.50;99.90;;;;;;2598157;46;20239;31
2023/08/05 01:08:17;;;;;;;11.85;7.85;;;19.40;99.90;;;;;;2605066;46;21561;31
2023/08/05 01:10:53;;;;;;;11.30;8.00;;;19.40;99.90;;;;;;2702486;39;20425;31
2023/08/05 01:13:31;;;;;;;10.40;6.85;;;19.40;99.90;;;;;;2586462;54;20023;31
2023/08/05 01:16:06;;;;;;;10.20;6.30;;;19.30;99.90;;;;;;2586298;54;20026;31
2023/08/05 01:18:40;;;;;;;6.67;5.50;;;19.30;99.90;;;;;;2586048;54;20571;31
2023/08/05 01:21:15;;;;;;;8.13;5.20;;;19.30;99.90;;;;;;2586440;54;20251;31
2023/08/05 01:23:58;;;;;;;6.68;5.25;;;19.20;99.90;;;;;;2586535;54;20901;31
2023/08/05 01:26:35;;;;;;;6.35;5.15;;;19.20;99.90;;;;;;2683995;39;21589;31
2023/08/05 01:29:11;;;;;;;9.18;5.40;;;19.20;99.90;;;;;;2586538;54;20033;31
2023/08/05 01:31:54;;;;;;;8.25;5.93;;;19.20;99.90;;;;;;2585412;54;20041;31
2023/08/05 01:34:30;;;;;;;8.55;6.10;;;19.20;99.90;;;;;;2684644;39;21471;31
2023/08/05 01:37:07;;;;;;;6.20;4.80;;;19.20;99.90;;;;;;2586412;54;20867;31
2023/08/05 01:39:40;;;;;;;7.90;6.00;;;19.20;99.90;;;;;;2586567;54;20023;31
2023/08/05 01:42:17;;;;;;;9.67;5.90;;;19.20;99.90;;;;;;2684008;39;20543;31
2023/08/05 01:44:51;;;;;;;9.10;6.30;;;19.20;99.90;;;;;;2586323;54;21468;31
2023/08/05 01:47:26;;;;;;;11.00;6.45;;;19.10;99.90;;;;;;2587027;46;20752;31
2023/08/05 01:50:02;;;;;;;11.30;7.00;;;19.20;99.90;;;;;;2586363;54;20030;31
2023/08/05 01:52:37;;;;;;;9.02;6.28;;;19.10;99.90;;;;;;2585429;54;21320;31
2023/08/05 01:55:14;;;;;;;9.13;5.63;;;19.10;99.90;;;;;;2684068;39;21424;31
2023/08/05 01:57:51;;;;;;;8.00;6.20;;;19.10;99.90;;;;;;2586077;54;20042;31
2023/08/05 02:00:26;;;;;;;7.10;5.30;;;19.10;99.90;;;;;;2586177;54;20065;31
2023/08/05 02:03:03;;;;;;;7.37;5.47;;;19.00;99.90;;;;;;2586289;54;20883;31
2023/08/05 02:05:42;;;;;;;7.65;5.05;;;19.00;99.90;;;;;;2591650;46;22393;31
2023/08/05 02:08:18;;;;;;;7.75;5.13;;;19.00;99.90;;;;;;2585455;54;20949;31
2023/08/05 02:10:53;;;;;;;10.40;5.35;;;19.00;99.90;;;;;;2585431;54;21205;31
2023/08/05 02:13:32;;;;;;;6.30;4.83;;;18.90;99.90;;;;;;2604159;46;20081;31
2023/08/05 02:16:08;;;;;;;7.10;4.88;;;19.00;99.90;;;;;;2585379;54;20132;31
2023/08/05 02:18:47;;;;;;;7.17;4.93;;;18.90;99.90;;;;;;2585896;54;20906;31
2023/08/05 02:21:23;;;;;;;7.50;5.00;;;19.00;99.90;;;;;;2594015;46;20054;31
2023/08/05 02:24:02;;;;;;;12.15;5.60;;;19.00;99.90;;;;;;2585307;54;20081;31
2023/08/05 02:26:41;;;;;;;6.50;4.95;;;18.90;99.90;;;;;;2585304;54;20056;31
2023/08/05 02:29:25;;;;;;;6.32;4.78;;;18.90;99.90;;;;;;2586374;54;20022;31
2023/08/05 02:32:08;;;;;;;6.22;4.85;;;19.00;99.90;;;;;;2604434;46;20030;31
2023/08/05 02:34:44;;;;;;;13.05;5.45;;;18.90;99.90;;;;;;2586028;54;20059;31
2023/08/05 02:37:20;;;;;;;10.27;5.80;;;18.90;99.90;;;;;;2585440;54;20018;31
2023/08/05 02:39:58;;;;;;;8.05;4.90;;;19.00;99.90;;;;;;2584846;54;20770;31
2023/08/05 02:45:10;;;;;;;9.10;4.70;;;19.00;99.90;;;;;;2585011;54;21193;31
2023/08/05 02:47:44;;;;;;;4.95;3.60;;;19.00;99.90;;;;;;2683558;39;22373;31
2023/08/05 02:50:23;;;;;;;8.95;5.05;;;19.00;99.90;;;;;;2585424;54;20942;31
2023/08/05 02:53:11;;;;;;;6.25;5.13;;;19.00;99.90;;;;;;2584839;54;20936;31
2023/08/05 02:55:47;;;;;;;6.28;4.15;;;19.00;99.90;;;;;;2586373;54;21164;31
2023/08/05 02:58:22;;;;;;;10.15;4.80;;;19.00;99.90;;;;;;2586148;54;20085;31
2023/08/05 03:01:12;;;;;;;7.88;5.07;;;19.00;99.90;;;;;;2585227;54;20030;31
2023/08/05 03:03:47;;;;;;;5.95;4.55;;;19.00;99.90;;;;;;2604015;46;20089;31
2023/08/05 03:06:25;;;;;;;8.57;4.97;;;19.00;99.90;;;;;;2585293;54;20840;31
2023/08/05 03:09:05;;;;;;;7.88;5.30;;;19.00;99.90;;;;;;2584930;54;20896;31
2023/08/05 03:11:39;;;;;;;8.43;5.05;;;19.00;99.90;;;;;;2586019;54;20871;31
2023/08/05 03:14:20;;;;;;;6.30;5.53;;;19.00;99.90;;;;;;2683260;39;22461;31
2023/08/05 03:17:03;;;;;;;20.05;5.95;;;19.00;99.90;;;;;;2592742;46;20973;31
2023/08/05 03:19:41;;;;;;;8.43;5.65;;;19.00;99.90;;;;;;2586331;54;20026;31
2023/08/05 03:22:18;;;;;;;11.10;5.50;;;19.00;99.90;;;;;;2586118;54;20108;31
2023/08/05 03:24:56;;;;;;;6.70;5.20;;;19.00;99.90;;;;;;2586107;54;20855;31
2023/08/05 03:27:31;;;;;;;6.83;4.97;;;19.00;99.90;;;;;;2604342;46;20256;31
2023/08/05 03:30:12;;;;;;;9.15;4.72;;;19.00;99.90;;;;;;2586259;54;20022;31
2023/08/05 03:32:52;;;;;;;5.67;4.23;;;18.90;99.90;;;;;;2586086;54;20026;31
2023/08/05 03:35:34;;;;;;;6.63;5.53;;;19.00;99.90;;;;;;2683934;39;21960;31
2023/08/05 03:38:14;;;;;;;10.68;5.70;;;19.00;99.90;;;;;;2604229;46;20022;31
2023/08/05 03:40:48;;;;;;;10.70;5.75;;;18.90;99.90;;;;;;2586044;54;20034;31
2023/08/05 03:43:27;;;;;;;8.23;5.90;;;18.90;99.90;;;;;;2585131;54;20896;31
2023/08/05 03:46:09;;;;;;;9.15;6.10;;;18.90;99.90;;;;;;2584928;54;20046;31
2023/08/05 03:48:48;;;;;;;8.40;5.80;;;18.90;99.90;;;;;;2586326;54;20838;31
2023/08/05 03:51:27;;;;;;;10.35;6.22;;;18.90;99.90;;;;;;2604606;46;20045;31
2023/08/05 03:54:09;;;;;;;7.18;5.97;;;18.90;99.90;;;;;;2585238;54;20870;31
2023/08/05 03:56:45;;;;;;;8.70;5.28;;;18.80;99.90;;;;;;2585072;54;20034;31
2023/08/05 03:59:20;;;;;;;10.02;5.53;;;18.80;99.90;;;;;;2585902;54;20092;31
2023/08/05 04:01:55;;;;;;;7.10;5.70;;;18.80;99.90;;;;;;2683235;39;22380;31
2023/08/05 04:04:35;;;;;;;7.25;5.95;;;18.80;99.90;;;;;;2584958;54;20085;31
2023/08/05 04:07:19;;;;;;;8.02;5.25;;;18.80;99.90;;;;;;2585886;54;20871;31
2023/08/05 04:09:54;;;;;;;8.88;6.10;;;18.80;99.90;;;;;;2585769;54;20646;31
2023/08/05 04:12:33;;;;;;;;;;;18.80;99.90;;;;;;2598747;46;20030;31
2023/08/05 04:15:13;;;;;;;10.43;7.28;;;18.80;99.90;;;;;;2586072;54;20675;31
2023/08/05 04:17:54;;;;;;;8.88;5.68;;;18.80;99.90;;;;;;2585976;54;20050;31
2023/08/05 04:20:35;;;;;;;10.20;7.10;;;18.80;99.90;;;;;;2585995;54;20022;31
2023/08/05 04:23:10;;;;;;;9.50;6.70;;;18.90;99.90;;;;;;2604367;46;20027;31
2023/08/05 04:25:51;;;;;;;9.67;6.83;;;18.90;99.90;;;;;;2584862;54;20787;31
2023/08/05 04:28:26;;;;;;;9.87;6.50;;;18.90;99.90;;;;;;2584769;54;20809;31
2023/08/05 04:31:03;;;;;;;10.32;6.43;;;18.90;99.90;;;;;;2604122;46;20026;31
2023/08/05 04:33:36;;;;;;;10.35;6.85;;;19.00;99.90;;;;;;2585939;54;20865;31
2023/08/05 04:36:16;;;;;;;6.80;5.67;;;19.00;99.90;;;;;;2683734;39;20573;31
2023/08/05 04:38:53;;;;;;;7.97;7.18;;;19.00;99.90;;;;;;2604106;46;20057;31
2023/08/05 04:41:30;;;;;;;10.80;7.45;;;19.00;99.90;;;;;;2585751;54;20038;31
2023/08/05 04:44:12;;;;;;;6.63;5.28;;;19.00;99.90;;;;;;2585808;54;21379;31
2023/08/05 04:46:46;;;;;;;9.32;6.75;;;19.00;99.90;;;;;;2585708;54;20132;31
2023/08/05 04:49:23;;;;;;;8.33;7.10;;;19.10;99.90;;;;;;2604606;47;20109;31
2023/08/05 04:52:02;;;;;;;8.85;7.18;;;19.10;99.90;;;;;;2586146;54;20863;31
2023/08/05 04:54:40;;;;;;;9.47;7.03;;;19.00;99.90;;;;;;2585603;54;20756;31
2023/08/05 04:57:16;;;;;;;9.40;7.00;;;19.00;99.90;;;;;;2584927;54;20862;31
2023/08/05 05:00:03;;;;;;;8.52;6.32;;;18.90;99.90;;;;;;2584861;54;20115;31
2023/08/05 05:02:39;;;;;;;7.50;6.65;;;18.90;99.90;;;;;;2585794;54;20926;31
2023/08/05 05:05:17;;;;;;;7.67;6.47;;;18.90;99.90;;;;;;2604439;47;20026;31
2023/08/05 05:07:56;;;;;;;12.40;8.48;;;18.90;99.90;;;;;;2585627;54;20045;31
2023/08/05 05:10:34;;;;;;;10.63;6.88;;;18.90;99.90;;;;;;2585849;54;20864;31
2023/08/05 05:13:10;;;;;;;11.00;7.85;;;18.90;99.90;;;;;;2591849;47;20964;31
2023/08/05 05:15:52;;;;;;;8.40;7.47;;;18.90;99.90;;;;;;2600401;47;20967;31
2023/08/05 05:18:28;;;;;;;10.17;7.90;;;18.90;99.90;;;;;;2585622;54;20052;31
2023/08/05 05:21:01;;;;;;;11.70;7.78;;;19.00;99.90;;;;;;2585791;54;20093;31
2023/08/05 05:23:38;;;;;;;8.30;7.20;;;19.00;99.90;;;;;;2584903;54;19942;31
2023/08/05 05:26:15;;;;;;;9.15;8.15;;;19.00;99.90;;;;;;2585900;54;21207;31
2023/08/05 05:28:52;;;;;;;9.73;8.18;;;19.00;99.90;;;;;;2584793;54;20864;31
2023/08/05 05:31:30;;;;;;;7.80;6.90;;;19.00;99.90;;;;;;2584356;54;20032;31
2023/08/05 05:34:07;;;;;;;7.78;6.95;;;19.00;99.90;;;;;;2585790;54;22520;31
2023/08/05 05:36:47;;;;;;;10.20;7.72;;;19.00;99.90;;;;;;2585644;54;20031;31
2023/08/05 05:39:32;;;;;;;7.40;6.20;;;19.00;99.90;;;;;;2754597;31;22437;31
2023/08/05 05:42:10;;;;;;;10.20;7.20;;;19.00;99.90;;;;;;2586408;54;20033;31
2023/08/05 05:44:52;;;;;;;12.90;6.72;;;19.00;99.90;;;;;;2586522;54;20693;31
2023/08/05 05:47:29;;;;;;;7.85;6.38;;;19.00;99.90;;;;;;2586492;54;20115;31
2023/08/05 05:50:03;;;;;;;8.85;6.45;;;19.10;99.90;;;;;;2591678;46;20018;31
2023/08/05 05:52:40;;;;;;;8.15;6.45;;;19.10;99.90;;;;;;2585493;54;20917;31
2023/08/05 05:55:17;;;;;;;8.40;6.15;;;19.20;99.90;;;;;;2584325;54;20050;31
2023/08/05 05:57:52;;;;;;;8.75;5.10;;;19.20;99.90;;;;;;2585414;54;20898;31
2023/08/05 06:00:28;;;;;;;7.47;5.38;;;19.20;99.90;;;;;;2585599;54;21104;31
2023/08/05 06:03:03;;;;;;;8.65;4.78;;;19.20;99.90;;;;;;2586438;54;20866;31
2023/08/05 06:05:38;;;;;;;8.50;5.45;;;19.20;99.90;;;;;;2586250;54;20875;31
2023/08/05 06:08:15;;;;;;;7.25;6.10;;;19.30;99.90;;;;;;2683575;39;21652;31
2023/08/05 06:10:55;;;;;;;6.45;4.90;;;19.30;99.90;;;;;;2586239;54;20582;31
2023/08/05 06:13:33;;;;;;;5.50;4.33;;;19.30;99.90;;;;;;2586236;54;20030;31
2023/08/05 06:16:12;;;;;;;9.38;5.22;;;19.30;99.90;;;;;;2601109;46;21281;31
2023/08/05 06:18:51;;;;;;;9.90;5.70;;;19.30;99.90;;;;;;2586318;54;20855;31
2023/08/05 06:21:27;;;;;;;6.40;4.78;;;19.30;99.90;;;;;;2586251;54;20052;31
2023/08/05 06:24:06;;;;;;;6.53;4.90;;;19.30;99.90;;;;;;2586139;54;20900;31
2023/08/05 06:26:43;;;;;;;7.38;4.65;;;19.40;99.90;;;;;;2586298;54;20946;31
2023/08/05 06:29:19;;;;;;;8.25;5.22;;;19.40;99.90;;;;;;2585903;54;19986;31
2023/08/05 06:31:55;;;;;;;7.70;5.05;;;19.40;99.90;;;;;;2604604;46;20042;31
2023/08/05 06:34:30;;;;;;;8.40;5.70;;;19.40;99.90;;;;;;2586393;54;20022;31
2023/08/05 06:37:03;;;;;;;9.25;5.30;;;19.40;99.90;;;;;;2586072;54;20766;31
2023/08/05 06:39:38;;;;;;;9.15;5.75;;;19.40;99.90;;;;;;2586185;54;20097;31
2023/08/05 06:42:15;;;;;;;8.27;5.45;;;19.50;99.90;;;;;;2586093;54;20118;31
2023/08/05 06:44:49;;;;;;;7.97;5.20;;;19.50;99.90;;;;;;2584996;54;20097;31
2023/08/05 06:47:30;;;;;;;8.00;5.65;;;19.50;99.90;;;;;;2585452;54;20883;31
2023/08/05 06:50:07;;;;;;;8.20;5.82;;;19.50;99.90;;;;;;2585929;54;20073;31
2023/08/05 06:52:46;;;;;;;8.15;4.93;;;19.50;99.90;;;;;;2586254;54;20631;31
2023/08/05 06:56:00;;;;;;;5.68;4.72;;;19.50;99.90;;;;;;2586286;54;20038;31
2023/08/05 06:58:53;;;;;;;8.95;5.20;;;19.60;99.90;;;;;;2585895;54;20089;31
2023/08/05 07:01:33;;;;;;;8.25;5.53;;;19.50;99.90;;;;;;2586056;54;20034;31
2023/08/05 07:04:07;;;;;;;8.67;4.77;;;19.60;99.90;;;;;;2585713;54;20026;31
2023/08/05 07:06:47;;;;;;;9.00;5.47;;;19.60;99.90;;;;;;2604581;46;20884;31
2023/08/05 07:09:25;;;;;;;8.43;6.13;;;19.60;99.90;;;;;;2585984;54;21816;31
2023/08/05 07:12:01;;;;;;;8.77;5.97;;;19.60;99.90;;;;;;2683110;39;21580;31
2023/08/05 07:14:44;;;;;;;7.78;6.38;;;19.60;99.90;;;;;;2683600;39;20413;31
2023/08/05 07:17:23;;;;;;;9.45;6.70;;;19.70;99.90;;;;;;2586229;54;20851;31
2023/08/05 07:19:58;;;;;;;11.10;6.20;;;19.70;99.90;;;;;;2586037;54;20127;31
2023/08/05 07:22:31;;;;;;;19.95;7.40;;;19.60;99.90;;;;;;2586257;54;21585;31
2023/08/05 07:25:09;;;;;;;12.88;6.38;;;19.60;99.90;;;;;;2586184;54;20128;31
2023/08/05 07:27:44;;;;;;;11.18;6.50;;;19.60;99.90;;;;;;2586327;54;20733;31
2023/08/05 07:30:24;;;;;;;7.05;6.00;;;19.60;99.90;;;;;;2604754;46;20049;31
2023/08/05 07:33:07;;;;;;;7.47;5.97;;;19.60;99.90;;;;;;2604749;46;20748;31
2023/08/05 07:35:43;;;;;;;10.20;6.28;;;19.70;99.90;;;;;;2682793;39;21479;31
2023/08/05 07:38:23;;;;;;;11.40;6.30;;;19.70;99.90;;;;;;2586405;54;20034;31
2023/08/05 07:41:03;;;;;;;7.65;5.70;;;19.70;99.90;;;;;;2586278;54;21841;31
2023/08/05 07:43:42;;;;;;;8.32;5.78;;;19.70;99.90;;;;;;2586190;54;20506;31
2023/08/05 07:46:25;;;;;;;11.87;6.37;;;19.70;99.90;;;;;;2585930;54;20057;31
2023/08/05 07:49:04;;;;;;;10.18;5.72;;;19.70;99.90;;;;;;2585933;54;20911;31
2023/08/05 07:51:45;;;;;;;10.38;7.00;;;19.80;99.90;;;;;;2584999;54;20966;31
2023/08/05 07:54:17;;;;;;;7.70;6.90;;;19.80;99.90;;;;;;2595504;46;20030;31
2023/08/05 07:56:54;;;;;;;9.60;7.63;;;19.80;99.90;;;;;;2604011;47;20143;31
2023/08/05 07:59:32;;;;;;;11.97;7.90;;;19.80;99.90;;;;;;2683844;39;21502;31
2023/08/05 08:02:12;;;;;;;11.50;8.13;;;19.80;99.90;;;;;;2585754;54;20055;31
2023/08/05 08:04:48;;;;;;;10.00;8.20;;;19.80;99.90;;;;;;2585059;54;20005;31
2023/08/05 08:07:25;;;;;;;12.00;9.50;;;19.90;99.90;;;;;;2585967;54;20037;31
2023/08/05 08:10:01;;;;;;;13.13;9.75;;;19.80;99.90;;;;;;2589085;46;19935;31
2023/08/05 08:12:38;;;;;;;11.70;10.05;;;19.90;99.90;;;;;;2585832;54;20053;31
2023/08/05 08:15:15;;;;;;;12.63;9.02;;;19.90;99.90;;;;;;2584999;54;20064;31
2023/08/05 08:17:56;;;;;;;16.10;9.23;;;19.80;99.90;;;;;;2585699;54;20648;31
2023/08/05 08:20:33;;;;;;;16.23;6.77;;;19.80;99.90;;;;;;2603938;46;20966;31
2023/08/05 08:23:09;;;;;;;13.43;9.10;;;19.90;99.90;;;;;;2585627;54;20238;31
2023/08/05 08:25:44;;;;;;;12.67;9.33;;;19.90;99.90;;;;;;2585823;54;19941;31
2023/08/05 08:28:21;;;;;;;14.50;8.23;;;20.00;99.90;;;;;;2586045;54;20038;31
2023/08/05 08:30:57;;;;;;;10.77;8.15;;;20.00;99.90;;;;;;2584981;54;20030;31
2023/08/05 08:33:37;;;;;;;11.10;7.85;;;20.10;99.90;;;;;;2683801;39;21471;31
2023/08/05 08:36:15;;;;;;;12.07;8.93;;;20.10;99.90;;;;;;2585860;54;20053;31
2023/08/05 08:38:55;;;;;;;11.07;8.15;;;20.20;99.90;;;;;;2603617;46;19940;31
2023/08/05 08:41:37;;;;;;;10.20;8.00;;;20.20;99.90;;;;;;2585060;54;20023;31
2023/08/05 08:44:12;;;;;;;11.60;8.80;;;20.30;99.90;;;;;;2584970;54;20894;31
2023/08/05 08:46:51;;;;;;;11.70;7.80;;;20.30;99.90;;;;;;2601119;47;20128;31
2023/08/05 08:49:31;;;;;;;9.60;6.65;;;20.50;99.90;;;;;;2604401;47;20954;31
2023/08/05 08:52:06;;;;;;;8.60;7.70;;;20.60;99.90;;;;;;2585726;54;20038;31
2023/08/05 08:54:46;;;;;;;8.90;6.70;;;20.70;99.90;;;;;;2584948;54;20053;31
2023/08/05 08:57:20;;;;;;;;;;;20.80;99.90;;;;;;2586125;54;20902;31
2023/08/05 08:59:58;;;;;;;10.45;7.95;;;20.80;99.90;;;;;;2682985;39;22381;31
2023/08/05 09:02:32;;;;;;;13.70;7.70;;;20.90;99.90;;;;;;2585174;54;20880;31
2023/08/05 09:05:11;;;;;;;10.57;7.70;;;20.90;99.90;;;;;;2585723;54;20723;31
2023/08/05 09:07:53;;;;;;;9.40;7.15;;;20.90;99.90;;;;;;2604570;47;20085;31
2023/08/05 09:10:31;;;;;;;12.00;7.00;;;20.90;99.90;;;;;;2586332;54;20027;31
2023/08/05 09:13:09;;;;;;;9.97;6.83;;;20.90;99.90;;;;;;2585832;54;20033;31
2023/08/05 09:15:45;;;;;;;8.48;7.20;;;20.90;99.90;;;;;;2586360;54;20854;31
2023/08/05 09:18:24;;;;;;;9.77;7.30;;;20.90;99.90;;;;;;2586830;54;20935;31
2023/08/05 09:21:02;;;;;;;9.87;6.60;;;20.90;99.90;;;;;;2586252;54;20033;31
2023/08/05 09:23:50;;;;;;;11.45;7.55;;;20.80;99.90;;;;;;2589362;46;20050;31
2023/08/05 09:26:31;;;;;;;9.10;6.45;;;20.80;99.90;;;;;;2586225;54;20822;31
2023/08/05 09:29:05;;;;;;;8.18;6.82;;;20.80;99.90;;;;;;2586508;54;20085;31
2023/08/05 09:31:45;;;;;;;10.73;7.30;;;20.80;99.90;;;;;;2585492;54;20052;31
2023/08/05 09:34:24;;;;;;;10.18;6.65;;;20.80;99.90;;;;;;2585471;54;20883;31
2023/08/05 09:37:04;;;;;;;8.40;6.20;;;20.80;99.90;;;;;;2586325;54;20030;31
2023/08/05 09:39:47;;;;;;;8.13;6.50;;;20.70;99.90;;;;;;2585497;54;20074;31
2023/08/05 09:42:23;;;;;;;9.50;6.20;;;20.70;99.90;;;;;;2586640;54;20875;31
2023/08/05 09:45:02;;;;;;;8.75;6.45;;;20.70;99.90;;;;;;2586511;54;20027;31
2023/08/05 09:47:38;;;;;;;9.00;7.25;;;20.70;99.90;;;;;;2586780;54;21289;31
2023/08/05 09:50:18;;;;;;;7.00;6.15;;;20.70;99.90;;;;;;2684523;39;20420;31
2023/08/05 09:52:57;;;;;;;10.83;6.73;;;20.70;99.90;;;;;;2586375;54;20026;31
2023/08/05 09:55:33;;;;;;;11.23;6.33;;;20.70;99.90;;;;;;2586385;54;20254;31
2023/08/05 09:58:13;;;;;;;15.80;6.28;;;20.70;99.90;;;;;;2586676;54;20097;31
2023/08/05 10:00:51;;;;;;;15.50;7.40;;;20.80;99.90;;;;;;2586733;54;20026;31
2023/08/05 10:03:26;;;;;;;20.80;6.80;;;20.80;99.90;;;;;;2586735;54;20026;31
2023/08/05 10:06:03;;;;;;;16.20;6.93;;;20.80;99.90;;;;;;2605285;46;20903;31
2023/08/05 10:08:48;;;;;;;16.80;7.72;;;20.90;99.90;;;;;;2600696;46;20854;31
2023/08/05 10:11:25;;;;;;;15.35;7.38;;;21.00;99.90;;;;;;2604748;46;20025;31
2023/08/05 10:14:01;;;;;;;14.00;5.95;;;21.00;99.90;;;;;;2586284;54;20964;31
2023/08/05 10:16:40;;;;;;;10.13;6.10;;;21.10;99.90;;;;;;2586495;54;20050;31
2023/08/05 10:19:15;;;;;;;12.00;6.90;;;21.10;99.90;;;;;;2586642;54;20831;31
2023/08/05 10:21:55;;;;;;;7.80;5.30;;;21.10;99.90;;;;;;2586354;54;20258;31
2023/08/05 10:24:32;;;;;;;;;;;21.20;99.90;;;;;;2586459;54;20027;31
2023/08/05 10:27:14;;;;;;;10.45;7.05;;;21.10;99.90;;;;;;2586543;54;20013;31
2023/08/05 10:29:54;;;;;;;9.40;7.70;;;21.10;99.90;;;;;;2586049;54;20012;31
2023/08/05 10:32:33;;;;;;;11.27;8.23;;;21.10;99.90;;;;;;2586302;54;20105;31
2023/08/05 10:35:38;;;;;;;10.30;7.90;;;21.00;99.90;;;;;;2773389;31;21744;31
2023/08/05 10:40:55;;;;;;;16.20;9.50;;;20.90;99.90;;;;;;2586490;54;20109;31
2023/08/05 10:43:34;;;;;;;13.83;10.63;;;20.90;99.90;;;;;;2586350;54;20081;31
2023/08/05 10:46:14;;;;;;;25.60;17.60;;;20.80;99.90;;;;;;2586297;54;20245;31
2023/08/05 10:48:53;;;;;;;18.65;14.98;;;20.80;99.90;;;;;;2586320;54;20363;31
2023/08/05 10:51:30;;;;;;;17.75;11.85;;;20.70;99.90;;;;;;2586573;54;20053;31
2023/08/05 10:54:08;;;;;;;13.35;9.00;;;20.70;99.90;;;;;;2586543;54;20834;31
2023/08/05 10:56:51;;;;;;;16.75;10.35;;;20.60;99.90;;;;;;2585276;54;20261;31
2023/08/05 10:59:28;;;;;;;15.20;9.60;;;20.70;99.90;;;;;;2586182;54;20146;31
2023/08/05 11:02:05;;;;;;;11.20;9.23;;;20.60;99.90;;;;;;2586495;54;20120;31
2023/08/05 11:04:37;;;;;;;13.95;11.55;;;20.60;99.90;;;;;;2586203;54;20859;31
2023/08/05 11:07:14;;;;;;;12.10;10.80;;;20.70;99.90;;;;;;2586481;54;20878;31
2023/08/05 11:09:59;;;;;;;11.95;10.48;;;20.60;99.90;;;;;;2586072;54;20153;31
2023/08/05 11:12:39;;;;;;;13.27;10.90;;;20.60;99.90;;;;;;2586053;54;20085;31
2023/08/05 11:15:14;;;;;;;12.50;10.93;;;20.60;99.90;;;;;;2586222;54;20242;31
2023/08/05 11:17:57;;;;;;;11.90;10.45;;;20.60;99.90;;;;;;2586129;54;20032;31
2023/08/05 11:20:34;;;;;;;15.00;11.07;;;20.60;99.90;;;;;;2585323;54;20958;31
2023/08/05 11:23:12;;;;;;;13.52;10.75;;;20.60;99.90;;;;;;2692055;39;21551;31
2023/08/05 11:25:49;;;;;;;14.07;12.63;;;20.60;99.90;;;;;;2604815;46;20929;31
2023/08/05 11:28:27;;;;;;;17.30;14.20;;;20.50;99.90;;;;;;2585545;54;21642;31
2023/08/05 11:31:04;;;;;;;16.75;14.18;;;20.50;99.90;;;;;;2584722;54;20782;31
2023/08/05 11:33:38;;;;;;;17.73;13.80;;;20.50;99.90;;;;;;2592464;46;20038;31
2023/08/05 11:36:11;;;;;;;16.67;12.95;;;20.40;99.90;;;;;;2585596;54;20854;31
2023/08/05 11:38:47;;;;;;;14.95;13.35;;;20.40;99.90;;;;;;2585848;54;20026;31
2023/08/05 11:41:24;;;;;;;15.20;13.60;;;20.40;99.90;;;;;;2586046;54;20867;31
2023/08/05 11:44:02;;;;;;;18.77;15.13;;;20.30;99.90;;;;;;2586364;54;21228;31
2023/08/05 11:46:38;;;;;;;16.40;14.65;;;20.30;99.90;;;;;;2585165;54;20918;31
2023/08/05 11:49:39;;;;;;;21.02;15.35;;;20.20;99.90;;;;;;2585942;54;20034;31
2023/08/05 11:52:14;;;;;;;16.70;15.00;;;20.20;99.90;;;;;;2604028;46;21365;31
2023/08/05 11:54:58;;;;;;;16.70;15.00;;;20.20;99.90;;;;;;2585895;54;20885;31
2023/08/05 11:57:32;;;;;;;17.87;15.97;;;20.10;99.90;;;;;;2586034;54;20846;31
2023/08/05 12:00:14;;;;;;;20.70;15.45;;;20.10;99.90;;;;;;2586101;54;21169;31
2023/08/05 12:02:49;;;;;;;19.83;16.00;;;20.10;99.90;;;;;;2586974;54;21387;31
2023/08/05 12:05:28;;;;;;;19.47;17.40;;;20.10;99.90;;;;;;2598769;46;21740;31
2023/08/05 12:08:02;;;;;;;18.63;16.83;;;20.00;99.90;;;;;;2585851;54;21008;31
2023/08/05 12:10:36;;;;;;;19.73;17.63;;;20.00;99.90;;;;;;2585088;54;20161;31
2023/08/05 12:13:14;;;;;;;22.37;18.57;;;20.00;99.90;;;;;;2584814;54;21154;31
2023/08/05 12:15:50;;;;;;;23.90;19.40;;;20.00;99.90;;;;;;2754622;31;21681;31
2023/08/05 12:18:31;;;;;;;21.63;18.13;;;19.90;99.90;;;;;;2604218;46;20317;31
2023/08/05 12:21:12;;;;;;;21.33;19.13;;;20.00;99.90;;;;;;2584888;54;20955;31
2023/08/05 12:23:49;;;;;;;21.80;19.50;;;19.90;99.90;;;;;;2604409;46;20038;31
2023/08/05 12:26:29;;;;;;;24.92;21.15;;;19.90;99.90;;;;;;2584906;54;20073;31
2023/08/05 12:29:12;;;;;;;24.13;21.15;;;19.90;99.90;;;;;;2585900;54;20053;31
2023/08/05 12:31:54;;;;;;;25.15;21.80;;;20.00;99.90;;;;;;2585796;54;20022;31
2023/08/05 12:34:28;;;;;;;23.95;21.45;;;19.90;99.90;;;;;;2585782;54;20081;31
2023/08/05 12:37:01;;;;;;;23.93;20.77;;;19.90;99.90;;;;;;2585944;54;20849;31
2023/08/05 12:39:34;;;;;;;24.60;21.80;;;19.90;99.90;;;;;;2585669;54;20250;31
2023/08/05 12:42:16;;;;;;;26.92;24.02;;;19.90;99.90;;;;;;2603721;46;20230;31
2023/08/05 12:44:55;;;;;;;28.15;25.30;;;19.90;99.90;;;;;;2585598;54;20757;31
2023/08/05 12:47:36;;;;;;;25.90;23.10;;;19.80;99.90;;;;;;2584702;54;20058;31
2023/08/05 12:50:12;;;;;;;26.75;23.95;;;19.80;99.90;;;;;;2585674;54;20884;31
2023/08/05 12:52:45;;;;;;;24.33;21.75;;;19.80;99.90;;;;;;2604086;47;20030;31
2023/08/05 12:55:19;;;;;;;27.58;24.77;;;19.80;99.90;;;;;;2585115;54;20057;31
2023/08/05 12:57:57;;;;;;;26.70;23.90;;;19.70;99.90;;;;;;2585952;54;20030;31
2023/08/05 13:00:30;;;;;;;29.58;26.33;;;19.70;99.90;;;;;;2604519;47;20054;31
2023/08/05 13:03:16;;;;;;;27.25;24.45;;;19.70;99.90;;;;;;2585543;54;20762;31
2023/08/05 13:05:56;;;;;;;30.47;25.57;;;19.60;99.90;;;;;;2683358;39;22302;31
2023/08/05 13:08:37;;;;;;;23.17;20.75;;;19.60;99.90;;;;;;2585022;54;20030;31
2023/08/05 13:11:14;;;;;;;26.35;21.85;;;19.60;99.90;;;;;;2585883;54;20889;31
2023/08/05 13:13:54;;;;;;;24.40;21.58;;;19.60;99.90;;;;;;2584622;54;21651;31
2023/08/05 13:16:31;;;;;;;21.97;19.37;;;19.60;99.90;;;;;;2585103;54;21290;31
2023/08/05 13:19:10;;;;;;;24.10;18.30;;;19.50;99.90;;;;;;2584700;54;20082;31
2023/08/05 13:21:46;;;;;;;17.60;15.80;;;19.40;99.90;;;;;;2584753;54;20069;31
2023/08/05 13:24:21;;;;;;;19.10;17.10;;;19.30;99.90;;;;;;2584937;54;20990;31
2023/08/05 13:26:59;;;;;;;;;;;19.30;99.90;;;;;;2586337;54;21516;31
2023/08/05 13:29:35;;;;;;;16.80;14.45;;;19.20;99.90;;;;;;2584807;54;19938;31
2023/08/05 13:32:16;;;;;;;15.40;13.82;;;19.10;99.90;;;;;;2585748;54;20081;31
2023/08/05 13:35:10;;;;;;;16.83;14.97;;;19.10;99.90;;;;;;2585969;54;20042;31
2023/08/05 13:38:00;;;;;;;15.80;14.20;;;19.00;99.90;;;;;;2585563;54;20034;31
2023/08/05 13:40:39;;;;;;;16.23;13.93;;;18.90;99.90;;;;;;2589295;47;20249;31
2023/08/05 13:43:22;;;;;;;16.77;15.07;;;18.90;99.90;;;;;;2585417;54;20057;31
2023/08/05 13:46:00;;;;;;;14.50;13.10;;;18.80;99.90;;;;;;2585397;54;20845;31
2023/08/05 13:48:37;;;;;;;13.13;11.68;;;18.80;99.90;;;;;;2585653;54;20107;31
2023/08/05 13:51:15;;;;;;;15.80;11.85;;;18.70;99.90;;;;;;2754469;31;21587;31